Terminal Aerodrome Forecast
Issued by NWS

Home | Current Version | Previous Version | Graphics & Text | Print | Product List | Glossary On
Versions: 1 2 3 4 5 6 7 8 9 10 11 12 13 14
000
FTUS45 KGGW 262325
TAFGDV
TAF
KGDV 262325Z 2700/2724 15013KT P6SM SCT200
     FM270500 15010KT P6SM SCT150 WS020/17040KT
     FM271000 16007KT P6SM SCT110
     FM272000 29015KT P6SM BKN100=

USA.gov is the U.S. government's official web portal to all federal, state and local government web resources and services.